createdAt,value
2023-04-09T00:02:16.239Z,4.03
2023-04-09T00:04:42.943Z,4.35
2023-04-09T00:07:09.634Z,3.95
2023-04-09T00:09:36.288Z,4.25
2023-04-09T00:12:03.469Z,4.30
2023-04-09T00:14:30.148Z,4.07
2023-04-09T00:16:56.756Z,4.30
2023-04-09T00:19:23.352Z,4.40
2023-04-09T00:21:50.058Z,4.05
2023-04-09T00:24:16.618Z,4.32
2023-04-09T00:26:43.276Z,4.00
2023-04-09T00:29:09.853Z,3.78
2023-04-09T00:31:36.482Z,4.03
2023-04-09T00:34:03.049Z,4.50
2023-04-09T00:36:29.657Z,4.32
2023-04-09T00:38:56.735Z,4.32
2023-04-09T00:41:23.320Z,4.10
2023-04-09T00:43:49.909Z,4.22
2023-04-09T00:46:17.736Z,4.43
2023-04-09T00:48:44.600Z,4.07
2023-04-09T00:51:11.157Z,4.20
2023-04-09T00:53:37.981Z,4.20
2023-04-09T00:56:05.304Z,4.45
2023-04-09T00:58:31.935Z,4.22
2023-04-09T01:00:58.864Z,4.30
2023-04-09T01:03:25.821Z,4.20
2023-04-09T01:06:08.593Z,4.47
2023-04-09T01:08:50.594Z,4.32
2023-04-09T01:11:24.626Z,4.32
2023-04-09T01:14:04.107Z,4.45
2023-04-09T01:16:32.878Z,4.22
2023-04-09T01:19:02.933Z,4.55
2023-04-09T01:21:33.874Z,4.45
2023-04-09T01:24:32.894Z,4.28
2023-04-09T01:27:06.687Z,4.30
2023-04-09T01:29:51.884Z,4.60
2023-04-09T01:32:19.639Z,4.28
2023-04-09T01:34:47.914Z,4.43
2023-04-09T01:37:15.662Z,4.60
2023-04-09T01:39:42.326Z,4.25
2023-04-09T01:42:11.256Z,4.25
2023-04-09T01:44:41.576Z,4.53
2023-04-09T01:47:08.926Z,4.13
2023-04-09T01:49:36.322Z,4.07
2023-04-09T01:52:03.442Z,4.30
2023-04-09T01:54:30.007Z,4.10
2023-04-09T01:56:57.922Z,4.10
2023-04-09T01:59:24.741Z,4.30
2023-04-09T02:02:01.858Z,4.70
2023-04-09T02:04:33.753Z,4.78
2023-04-09T02:07:07.046Z,4.55
2023-04-09T02:09:37.329Z,4.22
2023-04-09T02:12:06.294Z,4.70
2023-04-09T02:14:34.021Z,4.50
2023-04-09T02:17:01.410Z,4.50
2023-04-09T02:19:40.661Z,4.90
2023-04-09T02:22:07.308Z,4.60
2023-04-09T02:24:34.027Z,4.72
2023-04-09T02:27:02.016Z,4.90
2023-04-09T02:29:28.926Z,4.80
2023-04-09T02:31:55.538Z,4.70
2023-04-09T02:34:22.474Z,5.00
2023-04-09T02:36:49.168Z,4.78
2023-04-09T02:39:16.059Z,5.05
2023-04-09T02:41:42.684Z,4.70
2023-04-09T02:44:09.243Z,4.70
2023-04-09T02:46:35.895Z,4.80
2023-04-09T02:49:02.635Z,4.68
2023-04-09T02:51:29.368Z,5.05
2023-04-09T02:53:56.021Z,5.20
2023-04-09T02:56:22.722Z,5.00
2023-04-09T02:58:51.834Z,5.28
2023-04-09T03:01:18.677Z,4.72
2023-04-09T03:03:45.767Z,5.20
2023-04-09T03:06:12.423Z,5.13
2023-04-09T03:08:39.137Z,5.05
2023-04-09T03:11:05.916Z,5.25
2023-04-09T03:13:32.545Z,5.40
2023-04-09T03:15:59.255Z,4.93
2023-04-09T03:18:27.114Z,5.40
2023-04-09T03:20:53.700Z,5.13
2023-04-09T03:23:20.284Z,5.28
2023-04-09T03:25:47.978Z,5.25
2023-04-09T03:28:16.890Z,5.05
2023-04-09T03:30:51.250Z,4.88
2023-04-09T03:33:19.575Z,5.00
2023-04-09T03:35:57.649Z,5.43
2023-04-09T03:38:34.858Z,5.05
2023-04-09T03:41:07.318Z,4.95
2023-04-09T03:43:33.959Z,4.90
2023-04-09T03:46:00.605Z,4.80
2023-04-09T03:48:27.294Z,4.80
2023-04-09T03:50:56.121Z,4.85
2023-04-09T03:53:30.416Z,4.57
2023-04-09T03:56:03.044Z,4.70
2023-04-09T03:58:30.188Z,4.28
2023-04-09T04:00:57.715Z,4.65
2023-04-09T04:03:41.798Z,4.70
2023-04-09T04:06:34.246Z,4.68
2023-04-09T04:09:19.724Z,4.45
2023-04-09T04:11:51.997Z,4.70
2023-04-09T04:14:20.714Z,4.68
2023-04-09T04:16:52.839Z,4.50
2023-04-09T04:19:22.502Z,4.68
2023-04-09T04:21:51.272Z,4.57
2023-04-09T04:24:17.910Z,4.72
2023-04-09T04:26:44.927Z,4.72
2023-04-09T04:29:14.621Z,4.45
2023-04-09T04:31:50.972Z,4.88
2023-04-09T04:34:20.672Z,4.60
2023-04-09T04:36:54.177Z,4.55
2023-04-09T04:39:21.268Z,4.90
2023-04-09T04:41:55.697Z,4.97
2023-04-09T04:44:25.549Z,5.07
2023-04-09T04:46:59.025Z,5.05
2023-04-09T04:49:26.172Z,4.78
2023-04-09T04:51:52.830Z,4.65
2023-04-09T04:54:19.704Z,4.95
2023-04-09T04:56:51.181Z,5.13
2023-04-09T04:59:32.103Z,4.70
2023-04-09T05:02:02.825Z,4.68
2023-04-09T05:04:33.505Z,4.80
2023-04-09T05:07:00.402Z,5.05
2023-04-09T05:09:27.057Z,5.22
2023-04-09T05:12:03.590Z,4.95
2023-04-09T05:14:30.304Z,4.70
2023-04-09T05:16:57.013Z,4.75
2023-04-09T05:19:28.316Z,4.90
2023-04-09T05:21:59.816Z,5.32
2023-04-09T05:24:27.023Z,5.05
2023-04-09T05:26:53.716Z,5.38
2023-04-09T05:29:21.154Z,5.50
2023-04-09T05:31:47.755Z,5.55
2023-04-09T05:34:24.538Z,5.57
2023-04-09T05:36:54.216Z,5.55
2023-04-09T05:39:22.446Z,5.53
2023-04-09T05:41:49.229Z,5.65
2023-04-09T05:44:24.736Z,5.45
2023-04-09T05:46:56.687Z,5.50
2023-04-09T05:49:30.028Z,5.63
2023-04-09T05:51:58.047Z,6.40
2023-04-09T05:54:27.825Z,5.97
2023-04-09T05:56:54.487Z,6.00
2023-04-09T05:59:21.643Z,6.35
2023-04-09T06:01:48.417Z,6.10
2023-04-09T06:04:15.153Z,6.28
2023-04-09T06:06:41.872Z,6.72
2023-04-09T06:09:08.492Z,6.75
2023-04-09T06:11:38.381Z,6.70
2023-04-09T06:14:05.223Z,6.95
2023-04-09T06:16:33.344Z,7.55
2023-04-09T06:19:00.216Z,6.60
2023-04-09T06:21:26.975Z,7.10
2023-04-09T06:23:54.206Z,7.25
2023-04-09T06:26:21.541Z,7.15
2023-04-09T06:28:48.116Z,7.07
2023-04-09T06:31:14.812Z,7.50
2023-04-09T06:33:41.496Z,7.30
2023-04-09T06:36:08.390Z,7.80
2023-04-09T06:38:35.370Z,7.63
2023-04-09T06:41:01.955Z,7.38
2023-04-09T06:43:28.552Z,6.95
2023-04-09T06:45:55.126Z,7.68
2023-04-09T06:48:21.672Z,7.65
2023-04-09T06:50:48.567Z,7.40
2023-04-09T06:53:16.012Z,7.75
2023-04-09T06:55:43.184Z,7.57
2023-04-09T06:58:09.798Z,7.13
2023-04-09T07:00:36.416Z,7.53
2023-04-09T07:03:03.394Z,8.07
2023-04-09T07:05:30.702Z,7.32
2023-04-09T07:07:57.271Z,7.57
2023-04-09T07:10:23.877Z,7.72
2023-04-09T07:12:50.538Z,7.82
2023-04-09T07:15:17.183Z,8.25
2023-04-09T07:17:44.004Z,8.35
2023-04-09T07:20:11.188Z,8.13
2023-04-09T07:22:37.799Z,8.27
2023-04-09T07:25:04.700Z,8.95
2023-04-09T07:27:31.655Z,8.70
2023-04-09T07:29:59.223Z,9.00
2023-04-09T07:32:27.917Z,8.40
2023-04-09T07:34:55.372Z,8.35
2023-04-09T07:37:22.022Z,8.60
2023-04-09T07:39:49.703Z,9.05
2023-04-09T07:42:16.330Z,8.82
2023-04-09T07:44:43.801Z,9.10
2023-04-09T07:47:11.288Z,9.57
2023-04-09T07:49:40.832Z,9.88
2023-04-09T07:52:08.055Z,10.20
2023-04-09T07:54:35.062Z,9.15
2023-04-09T07:57:01.783Z,10.00
2023-04-09T07:59:29.577Z,8.82
2023-04-09T08:01:56.463Z,9.10
2023-04-09T08:04:23.359Z,9.27
2023-04-09T08:06:51.195Z,9.07
2023-04-09T08:09:18.577Z,9.55
2023-04-09T08:11:45.882Z,8.77
2023-04-09T08:14:13.167Z,9.35
2023-04-09T08:16:41.537Z,9.13
2023-04-09T08:19:11.574Z,9.52
2023-04-09T08:21:39.263Z,8.75
2023-04-09T08:24:07.195Z,9.05
2023-04-09T08:26:33.868Z,8.75
2023-04-09T08:29:00.867Z,8.95
2023-04-09T08:31:27.533Z,9.38
2023-04-09T08:33:54.181Z,8.90
2023-04-09T08:36:21.514Z,9.77
2023-04-09T08:38:48.742Z,9.02
2023-04-09T08:41:25.491Z,9.32
2023-04-09T08:43:58.130Z,8.70
2023-04-09T08:46:26.590Z,8.80
2023-04-09T08:48:53.776Z,8.95
2023-04-09T08:51:22.576Z,9.55
2023-04-09T08:53:53.449Z,8.98
2023-04-09T08:56:21.324Z,9.15
2023-04-09T08:58:48.087Z,7.93
2023-04-09T09:01:21.766Z,8.20
2023-04-09T09:03:57.640Z,8.68
2023-04-09T09:06:27.201Z,8.77
2023-04-09T09:09:08.297Z,8.73
2023-04-09T09:11:36.712Z,8.57
2023-04-09T09:14:04.346Z,8.57
2023-04-09T09:16:33.093Z,8.50
2023-04-09T09:19:00.365Z,8.57
2023-04-09T09:21:28.718Z,8.77
2023-04-09T09:23:56.389Z,8.05
2023-04-09T09:26:25.757Z,8.27
2023-04-09T09:28:52.835Z,7.80
2023-04-09T09:31:21.155Z,8.40
2023-04-09T09:33:48.354Z,7.97
2023-04-09T09:36:35.586Z,8.82
2023-04-09T09:39:10.270Z,7.82
2023-04-09T09:44:07.069Z,8.27
2023-04-09T09:46:36.122Z,7.65
2023-04-09T09:49:02.799Z,8.20
2023-04-09T09:51:31.930Z,7.55
2023-04-09T09:53:58.877Z,8.30
2023-04-09T09:56:32.775Z,8.65
2023-04-09T09:59:03.901Z,9.20
2023-04-09T10:01:30.822Z,9.82
2023-04-09T10:04:00.291Z,9.80
2023-04-09T10:06:27.749Z,9.82
2023-04-09T10:08:57.749Z,10.20
2023-04-09T10:11:25.211Z,10.63
2023-04-09T10:13:57.114Z,11.63
2023-04-09T10:16:24.278Z,11.18
2023-04-09T10:18:51.632Z,10.75
2023-04-09T10:21:27.597Z,10.90
2023-04-09T10:23:54.511Z,10.82
2023-04-09T10:26:22.110Z,11.60
2023-04-09T10:29:06.803Z,10.95
2023-04-09T10:31:53.893Z,11.60
2023-04-09T10:34:27.198Z,11.40
2023-04-09T10:36:58.399Z,11.68
2023-04-09T10:39:27.450Z,11.07
2023-04-09T10:41:55.069Z,11.98
2023-04-09T10:44:23.140Z,11.07
2023-04-09T10:46:51.305Z,11.00
2023-04-09T10:49:20.271Z,11.27
2023-04-09T10:52:03.046Z,10.90
2023-04-09T10:54:35.452Z,10.70
2023-04-09T10:57:07.968Z,10.07
2023-04-09T10:59:36.252Z,10.43
2023-04-09T11:02:03.867Z,9.75
2023-04-09T11:04:41.785Z,10.00
2023-04-09T11:07:09.050Z,9.48
2023-04-09T11:09:36.537Z,9.93
2023-04-09T11:12:03.786Z,9.90
2023-04-09T11:14:30.604Z,9.73
2023-04-09T11:16:57.240Z,9.38
2023-04-09T11:19:23.815Z,9.43
2023-04-09T11:21:50.466Z,10.05
2023-04-09T11:24:18.772Z,9.50
2023-04-09T11:26:45.940Z,9.68
2023-04-09T11:29:12.933Z,28.10
2023-04-09T11:31:39.584Z,18.88
2023-04-09T11:34:11.299Z,14.75
2023-04-09T11:36:38.084Z,13.40
2023-04-09T11:39:04.982Z,13.05
2023-04-09T11:41:36.018Z,13.38
2023-04-09T11:44:04.266Z,13.13
2023-04-09T11:46:32.705Z,12.80
2023-04-09T11:48:59.500Z,12.38
2023-04-09T11:51:31.654Z,11.73
2023-04-09T11:54:08.049Z,11.27
2023-04-09T11:56:37.870Z,10.55
2023-04-09T11:59:04.639Z,11.07
2023-04-09T12:01:33.028Z,10.73
2023-04-09T12:04:00.854Z,10.40
2023-04-09T12:06:28.525Z,10.30
2023-04-09T12:08:59.044Z,11.63
2023-04-09T12:11:30.205Z,12.10
2023-04-09T12:14:03.638Z,10.90
2023-04-09T12:16:34.673Z,10.02
2023-04-09T12:19:03.078Z,10.00
2023-04-09T12:22:05.676Z,10.00
2023-04-09T12:24:32.480Z,9.93
2023-04-09T12:26:59.217Z,10.27
2023-04-09T12:29:26.860Z,9.63
2023-04-09T12:31:54.075Z,9.93
2023-04-09T12:34:20.842Z,10.52
2023-04-09T12:36:47.849Z,9.43
2023-04-09T12:39:14.518Z,9.88
2023-04-09T12:41:41.399Z,8.90
2023-04-09T12:44:08.056Z,9.70
2023-04-09T12:46:34.826Z,10.13
2023-04-09T12:49:01.513Z,9.88
2023-04-09T12:51:28.579Z,8.75
2023-04-09T12:53:55.396Z,8.90
2023-04-09T12:56:22.207Z,9.40
2023-04-09T12:58:48.911Z,9.23
2023-04-09T13:01:15.575Z,8.50
2023-04-09T13:03:42.534Z,8.45
2023-04-09T13:06:09.321Z,8.93
2023-04-09T13:08:36.466Z,9.00
2023-04-09T13:11:04.458Z,9.02
2023-04-09T13:13:31.579Z,8.52
2023-04-09T13:15:58.299Z,8.27
2023-04-09T13:18:24.999Z,8.23
2023-04-09T13:20:51.749Z,8.65
2023-04-09T13:23:18.404Z,7.80
2023-04-09T13:25:45.243Z,8.25
2023-04-09T13:28:11.873Z,8.27
2023-04-09T13:30:38.578Z,8.43
2023-04-09T13:33:05.603Z,8.38
2023-04-09T13:35:32.369Z,8.23
2023-04-09T13:38:01.131Z,8.00
2023-04-09T13:40:27.819Z,8.05
2023-04-09T13:42:54.474Z,7.82
2023-04-09T13:45:23.748Z,7.30
2023-04-09T13:47:51.137Z,7.40
2023-04-09T13:50:17.892Z,7.20
2023-04-09T13:52:44.588Z,7.35
2023-04-09T13:55:11.572Z,6.45
2023-04-09T13:57:38.275Z,6.90
2023-04-09T14:00:05.900Z,6.70
2023-04-09T14:02:33.297Z,6.78
2023-04-09T14:05:00.132Z,6.72
2023-04-09T14:07:26.984Z,7.60
2023-04-09T14:09:53.622Z,7.32
2023-04-09T14:12:20.472Z,6.97
2023-04-09T14:14:47.209Z,6.82
2023-04-09T14:17:13.893Z,6.85
2023-04-09T14:19:40.529Z,6.53
2023-04-09T14:22:08.796Z,6.32
2023-04-09T14:24:40.098Z,6.80
2023-04-09T14:27:07.790Z,5.88
2023-04-09T14:29:34.971Z,6.18
2023-04-09T14:32:01.639Z,6.13
2023-04-09T14:34:31.427Z,6.13
2023-04-09T14:36:58.106Z,5.97
2023-04-09T14:39:24.885Z,6.03
2023-04-09T14:41:52.112Z,5.63
2023-04-09T14:44:18.873Z,5.72
2023-04-09T14:46:45.796Z,5.93
2023-04-09T14:49:12.578Z,5.75
2023-04-09T14:51:39.308Z,6.00
2023-04-09T14:54:06.055Z,5.78
2023-04-09T14:56:32.752Z,5.63
2023-04-09T14:58:59.977Z,6.13
2023-04-09T15:01:27.362Z,6.38
2023-04-09T15:03:54.718Z,9.10
2023-04-09T15:06:21.550Z,11.88
2023-04-09T15:08:48.215Z,13.20
2023-04-09T15:11:16.285Z,11.43
2023-04-09T15:13:43.021Z,10.43
2023-04-09T15:16:09.739Z,9.95
2023-04-09T15:18:37.463Z,10.05
2023-04-09T15:21:04.342Z,9.73
2023-04-09T15:23:31.063Z,9.23
2023-04-09T15:25:57.874Z,9.93
2023-04-09T15:28:24.577Z,8.60
2023-04-09T15:30:51.456Z,9.00
2023-04-09T15:33:18.130Z,9.00
2023-04-09T15:35:44.880Z,8.52
2023-04-09T15:38:11.865Z,8.48
2023-04-09T15:40:40.766Z,8.57
2023-04-09T15:43:07.485Z,7.90
2023-04-09T15:45:34.182Z,8.30
2023-04-09T15:48:00.926Z,7.97
2023-04-09T15:50:27.638Z,8.23
2023-04-09T15:52:56.172Z,7.57
2023-04-09T15:55:26.652Z,8.43
2023-04-09T15:57:55.057Z,7.93
2023-04-09T16:00:22.234Z,7.53
2023-04-09T16:02:48.840Z,6.90
2023-04-09T16:05:15.904Z,7.07
2023-04-09T16:07:43.114Z,6.35
2023-04-09T16:10:10.110Z,6.57
2023-04-09T16:12:36.844Z,6.32
2023-04-09T16:15:04.016Z,6.38
2023-04-09T16:17:31.012Z,6.30
2023-04-09T16:19:57.839Z,5.78
2023-04-09T16:22:24.662Z,6.07
2023-04-09T16:24:54.223Z,5.68
2023-04-09T16:27:20.894Z,6.22
2023-04-09T16:29:47.537Z,5.95
2023-04-09T16:32:14.313Z,6.05
2023-04-09T16:34:41.173Z,5.90
2023-04-09T16:37:07.968Z,6.20
2023-04-09T16:39:34.632Z,6.40
2023-04-09T16:42:01.827Z,5.90
2023-04-09T16:44:28.455Z,5.72
2023-04-09T16:46:56.446Z,5.93
2023-04-09T16:49:23.148Z,5.63
2023-04-09T16:51:51.883Z,5.75
2023-04-09T16:54:18.701Z,5.80
2023-04-09T16:56:45.395Z,5.35
2023-04-09T16:59:12.283Z,5.32
2023-04-09T17:01:39.051Z,5.68
2023-04-09T17:04:06.177Z,5.40
2023-04-09T17:06:32.833Z,5.68
2023-04-09T17:08:59.992Z,5.50
2023-04-09T17:11:26.754Z,5.53
2023-04-09T17:13:53.637Z,5.20
2023-04-09T17:16:21.203Z,5.30
2023-04-09T17:18:48.241Z,4.80
2023-04-09T17:21:14.970Z,5.30
2023-04-09T17:23:42.560Z,5.30
2023-04-09T17:26:09.228Z,5.15
2023-04-09T17:28:36.169Z,5.10
2023-04-09T17:31:02.901Z,5.53
2023-04-09T17:33:29.689Z,5.20
2023-04-09T17:35:57.772Z,5.40
2023-04-09T17:38:25.230Z,5.53
2023-04-09T17:40:53.279Z,5.78
2023-04-09T17:43:19.907Z,5.05
2023-04-09T17:45:46.554Z,5.00
2023-04-09T17:48:13.184Z,5.18
2023-04-09T17:50:39.914Z,4.88
2023-04-09T17:53:06.684Z,4.75
2023-04-09T17:55:33.610Z,4.82
2023-04-09T17:58:00.415Z,5.32
2023-04-09T18:00:27.782Z,4.70
2023-04-09T18:02:54.753Z,4.68
2023-04-09T18:05:23.096Z,4.75
2023-04-09T18:07:50.032Z,4.78
2023-04-09T18:10:16.688Z,4.70
2023-04-09T18:12:43.335Z,4.70
2023-04-09T18:15:10.512Z,5.05
2023-04-09T18:17:37.239Z,5.30
2023-04-09T18:20:04.123Z,4.90
2023-04-09T18:22:30.800Z,4.97
2023-04-09T18:24:57.562Z,5.15
2023-04-09T18:27:24.511Z,5.10
2023-04-09T18:29:51.124Z,5.65
2023-04-09T18:32:19.584Z,5.50
2023-04-09T18:34:47.651Z,5.20
2023-04-09T18:37:15.238Z,4.90
2023-04-09T18:39:41.917Z,5.10
2023-04-09T18:42:08.693Z,4.80
2023-04-09T18:44:37.507Z,4.63
2023-04-09T18:47:05.792Z,4.80
2023-04-09T18:49:33.476Z,4.75
2023-04-09T18:52:00.554Z,5.15
2023-04-09T18:54:27.678Z,4.70
2023-04-09T18:56:54.400Z,4.65
2023-04-09T18:59:21.792Z,4.50
2023-04-09T19:01:48.773Z,4.38
2023-04-09T19:04:15.677Z,4.60
2023-04-09T19:06:46.232Z,4.70
2023-04-09T19:09:12.977Z,4.82
2023-04-09T19:11:39.635Z,4.90
2023-04-09T19:14:06.645Z,4.72
2023-04-09T19:16:33.310Z,4.80
2023-04-09T19:19:00.058Z,4.68
2023-04-09T19:21:28.857Z,4.47
2023-04-09T19:23:55.839Z,4.93
2023-04-09T19:26:23.131Z,5.22
2023-04-09T19:28:49.874Z,5.00
2023-04-09T19:31:17.084Z,4.90
2023-04-09T19:33:43.934Z,5.25
2023-04-09T19:36:10.841Z,5.05
2023-04-09T19:38:37.525Z,5.35
2023-04-09T19:41:04.381Z,5.05
2023-04-09T19:43:31.018Z,5.03
2023-04-09T19:45:57.708Z,4.85
2023-04-09T19:48:24.943Z,5.00
2023-04-09T19:50:52.522Z,4.97
2023-04-09T19:53:19.229Z,5.05
2023-04-09T19:55:46.052Z,5.00
2023-04-09T19:58:12.711Z,5.00
2023-04-09T20:00:39.537Z,5.10
2023-04-09T20:03:07.168Z,4.82
2023-04-09T20:05:34.000Z,4.97
2023-04-09T20:08:00.699Z,5.10
2023-04-09T20:10:27.424Z,5.07
2023-04-09T20:12:54.127Z,4.65
2023-04-09T20:15:21.112Z,4.90
2023-04-09T20:17:48.620Z,5.20
2023-04-09T20:20:19.720Z,5.03
2023-04-09T20:22:55.518Z,4.65
2023-04-09T20:25:23.278Z,5.07
2023-04-09T20:27:50.835Z,4.82
2023-04-09T20:30:17.553Z,4.70
2023-04-09T20:32:44.231Z,4.60
2023-04-09T20:35:12.905Z,4.93
2023-04-09T20:37:39.617Z,4.82
2023-04-09T20:40:06.931Z,5.00
2023-04-09T20:42:33.649Z,5.20
2023-04-09T20:45:01.781Z,5.20
2023-04-09T20:47:29.016Z,4.85
2023-04-09T20:49:59.772Z,4.53
2023-04-09T20:52:30.590Z,4.80
2023-04-09T20:54:57.603Z,5.20
2023-04-09T20:57:24.337Z,5.07
2023-04-09T20:59:51.116Z,5.07
2023-04-09T21:02:17.934Z,5.13
2023-04-09T21:04:44.871Z,5.47
2023-04-09T21:07:11.622Z,5.40
2023-04-09T21:09:38.568Z,5.88
2023-04-09T21:12:06.141Z,6.00
2023-04-09T21:14:32.878Z,6.10
2023-04-09T21:16:59.696Z,19.92
2023-04-09T21:19:26.476Z,16.58
2023-04-09T21:21:53.252Z,14.35
2023-04-09T21:24:20.004Z,11.73
2023-04-09T21:26:51.535Z,10.40
2023-04-09T21:29:22.137Z,9.60
2023-04-09T21:31:49.369Z,8.77
2023-04-09T21:34:16.385Z,8.57
2023-04-09T21:36:45.249Z,8.68
2023-04-09T21:39:12.505Z,8.43
2023-04-09T21:41:39.446Z,8.55
2023-04-09T21:44:08.747Z,8.40
2023-04-09T21:46:37.088Z,8.00
2023-04-09T21:49:04.334Z,8.38
2023-04-09T21:51:31.588Z,7.95
2023-04-09T21:54:03.300Z,8.20
2023-04-09T21:56:29.938Z,7.90
2023-04-09T21:58:56.637Z,7.97
2023-04-09T22:01:28.986Z,8.15
2023-04-09T22:03:57.551Z,7.75
2023-04-09T22:06:24.407Z,7.80
2023-04-09T22:08:56.004Z,7.68
2023-04-09T22:11:25.968Z,7.43
2023-04-09T22:13:55.799Z,7.40
2023-04-09T22:16:22.660Z,7.40
2023-04-09T22:18:49.414Z,7.35
2023-04-09T22:21:16.536Z,7.10
2023-04-09T22:23:43.570Z,7.22
2023-04-09T22:26:10.849Z,7.55
2023-04-09T22:28:38.506Z,7.38
2023-04-09T22:31:05.975Z,7.35
2023-04-09T22:33:32.858Z,7.45
2023-04-09T22:35:59.772Z,7.22
2023-04-09T22:38:26.563Z,7.15
2023-04-09T22:40:53.233Z,6.80
2023-04-09T22:43:20.105Z,6.80
2023-04-09T22:45:52.092Z,6.78
2023-04-09T22:48:19.355Z,7.10
2023-04-09T22:50:46.507Z,7.32
2023-04-09T22:53:18.547Z,7.18
2023-04-09T22:55:52.901Z,7.55
2023-04-09T22:58:19.671Z,7.07
2023-04-09T23:00:47.509Z,6.97
2023-04-09T23:03:14.672Z,6.90
2023-04-09T23:05:41.977Z,7.07
2023-04-09T23:08:09.032Z,6.93
2023-04-09T23:10:36.128Z,7.28
2023-04-09T23:13:02.849Z,7.45
2023-04-09T23:15:29.706Z,7.28
2023-04-09T23:17:56.750Z,7.10
2023-04-09T23:20:23.568Z,7.00
2023-04-09T23:22:50.609Z,6.93
2023-04-09T23:25:17.796Z,6.75
2023-04-09T23:27:44.819Z,7.22
2023-04-09T23:30:16.609Z,7.03
2023-04-09T23:32:44.958Z,6.90
2023-04-09T23:35:11.938Z,7.28
2023-04-09T23:37:42.638Z,6.90
2023-04-09T23:40:11.169Z,6.75
2023-04-09T23:42:38.157Z,6.68
2023-04-09T23:45:05.762Z,6.80
2023-04-09T23:47:34.769Z,7.30
2023-04-09T23:50:05.750Z,7.10
2023-04-09T23:52:36.790Z,6.88
2023-04-09T23:55:04.382Z,7.03
2023-04-09T23:57:31.064Z,7.18
2023-04-09T23:59:57.712Z,7.07
